createdAt,value
2018-11-28T00:02:08.626Z,2.60
2018-11-28T00:05:13.422Z,2.80
2018-11-28T00:08:17.743Z,2.77
2018-11-28T00:11:22.012Z,2.70
2018-11-28T00:14:26.288Z,2.90
2018-11-28T00:17:30.567Z,2.50
2018-11-28T00:20:34.891Z,2.67
2018-11-28T00:23:39.189Z,2.80
2018-11-28T00:26:43.495Z,2.80
2018-11-28T00:29:47.750Z,3.40
2018-11-28T00:32:52.015Z,2.80
2018-11-28T00:35:56.277Z,3.17
2018-11-28T00:39:00.567Z,3.37
2018-11-28T00:42:04.959Z,3.10
2018-11-28T00:45:15.869Z,3.10
2018-11-28T00:48:20.191Z,2.90
2018-11-28T00:51:24.460Z,2.80
2018-11-28T00:54:28.740Z,3.07
2018-11-28T00:57:32.989Z,3.43
2018-11-28T01:00:37.302Z,3.33
2018-11-28T01:03:41.572Z,2.97
2018-11-28T01:06:45.848Z,3.17
2018-11-28T01:09:50.122Z,3.50
2018-11-28T01:12:55.031Z,3.07
2018-11-28T01:15:59.296Z,3.70
2018-11-28T01:19:03.576Z,3.17
2018-11-28T01:22:07.847Z,3.80
2018-11-28T01:25:13.607Z,3.93
2018-11-28T01:28:17.940Z,3.80
2018-11-28T01:31:22.233Z,3.70
2018-11-28T01:34:26.556Z,3.87
2018-11-28T01:37:30.886Z,3.47
2018-11-28T01:40:35.266Z,3.50
2018-11-28T01:43:39.705Z,3.17
2018-11-28T01:46:44.057Z,2.80
2018-11-28T01:49:48.392Z,3.30
2018-11-28T01:52:52.788Z,3.13
2018-11-28T01:55:57.234Z,2.93
2018-11-28T01:59:01.916Z,3.10
2018-11-28T02:02:09.110Z,2.80
2018-11-28T02:05:15.247Z,3.00
2018-11-28T02:08:20.365Z,3.60
2018-11-28T02:11:24.819Z,3.07
2018-11-28T02:14:30.404Z,2.70
2018-11-28T02:17:35.934Z,2.70
2018-11-28T02:20:41.228Z,2.87
2018-11-28T02:23:48.366Z,2.57
2018-11-28T02:26:53.214Z,2.80
2018-11-28T02:29:57.882Z,2.63
2018-11-28T02:33:04.326Z,2.60
2018-11-28T02:36:09.036Z,2.97
2018-11-28T02:39:13.660Z,2.73
2018-11-28T02:42:18.308Z,2.60
2018-11-28T02:45:23.683Z,2.90
2018-11-28T02:48:29.411Z,2.20
2018-11-28T02:51:34.936Z,2.37
2018-11-28T02:54:39.555Z,2.37
2018-11-28T02:57:45.707Z,2.03
2018-11-28T03:00:50.152Z,2.60
2018-11-28T03:03:55.254Z,1.93
2018-11-28T03:07:01.458Z,1.77
2018-11-28T03:10:10.041Z,2.03
2018-11-28T03:13:14.874Z,2.10
2018-11-28T03:16:20.344Z,2.03
2018-11-28T03:19:26.384Z,2.00
2018-11-28T03:22:31.045Z,2.00
2018-11-28T03:25:36.495Z,1.77
2018-11-28T03:28:41.642Z,1.90
2018-11-28T03:31:46.168Z,1.90
2018-11-28T03:34:50.657Z,2.10
2018-11-28T03:37:56.149Z,1.80
2018-11-28T03:41:01.406Z,2.03
2018-11-28T03:44:07.013Z,2.00
2018-11-28T03:47:11.749Z,2.00
2018-11-28T03:50:17.174Z,2.30
2018-11-28T03:53:22.168Z,2.27
2018-11-28T03:56:28.566Z,2.23
2018-11-28T03:59:32.972Z,2.20
2018-11-28T04:02:39.254Z,2.40
2018-11-28T04:05:43.697Z,2.40
2018-11-28T04:08:48.526Z,2.87
2018-11-28T04:11:52.934Z,2.67
2018-11-28T04:14:57.336Z,3.23
2018-11-28T04:18:01.744Z,3.60
2018-11-28T04:21:06.122Z,2.90
2018-11-28T04:24:10.805Z,2.80
2018-11-28T04:27:15.149Z,3.20
2018-11-28T04:30:22.138Z,3.33
2018-11-28T04:33:26.565Z,2.93
2018-11-28T04:36:31.907Z,3.43
2018-11-28T04:39:37.978Z,3.27
2018-11-28T04:42:42.496Z,3.70
2018-11-28T04:45:46.915Z,3.83
2018-11-28T04:48:51.305Z,4.00
2018-11-28T04:51:55.791Z,4.20
2018-11-28T04:55:00.181Z,4.07
2018-11-28T04:58:04.949Z,4.43
2018-11-28T05:01:09.493Z,4.47
2018-11-28T05:04:14.649Z,4.47
2018-11-28T05:28:42.391Z,5.17
